Terminal Aerodrome Forecast
Issued by NWS Portland, OR

Home | Current Version | Previous Version | Text Only | Print | Product List | Glossary On
Versions: 1 2 3 4 5 6 7 8 9 10 11 12 13 14 15 16 17 18 19
000
FTUS46 KPQR 191742
TAFEUG
TAF
KEUG 191742Z 1918/2018 24004KT P6SM -RA BKN035 OVC050
     FM192000 22012KT P6SM -RA BKN030 OVC050
     FM192300 25015G25KT P6SM VCSH SCT030 BKN050
     FM200200 26007KT P6SM SCT200
     FM201400 VRB03KT 4SM BR SCT010=

USA.gov is the U.S. government's official web portal to all federal, state and local government web resources and services.